Latest Weather Observations for Young

IDN60801

Issued at 11:03 am EST Thursday 24 August 2017 (issued every 30 minutes, with the page automatically refreshed every 10 minutes)

About weather observations | Map of weather stations | Latest weather observations for NSW | Other Formats
Station Details ID: 073138 Name: YOUNG AIRPORT Lat: -34.25 Lon: 148.25 Height: 379.6 m
Data from the previous 72 hours. | See also: Recent months at Young
Date/Time
EST
Temp
°C
App
Temp
°C
Dew
Point
°C
Rel
Hum
%
Delta-T
°C
Wind Press
QNH
hPa
Press
MSL
hPa
Rain since
9am
mm
Dir  Spd
km/h
Gust
km/h
Spd
kts
Gust
kts
24/11:00am 9.8 7.1 5.8 76 1.9 W 9 13 5 7 1019.8 1020.4 0.0
24/10:30am 9.7 6.9 5.3 74 2.0 WSW 9 15 5 8 1019.9 1020.6 0.0
24/10:00am 9.4 6.4 4.0 69 2.4 SW 9 15 5 8 1019.8 1020.4 0.0
24/09:30am 9.1 6.2 4.9 75 1.9 SW 9 15 5 8 1019.6 1020.2 0.0
24/09:00am 8.7 4.3 4.9 77 1.7 SW 17 20 9 11 1019.5 1020.1 0.0
24/08:30am 8.0 3.7 5.1 82 1.3 SW 17 22 9 12 1019.4 1020.0 0.0
24/08:00am 7.7 5.3 6.8 94 0.4 WSW 9 13 5 7 1019.2 1019.8 0.0
24/07:30am 4.9 3.0 4.8 99 0.0 N 4 7 2 4 1019.0 1019.6 0.0
24/07:00am 3.9 2.5 3.8 99 0.0 CALM 0 0 0 0 1018.8 1019.4 0.0
24/06:30am 3.4 2.0 3.3 99 0.0 CALM 0 0 0 0 1018.7 1019.3 0.0
24/06:00am 2.6 1.0 2.5 99 0.0 CALM 0 0 0 0 1018.5 1019.1 0.0
24/05:30am 1.8 0.1 1.7 99 0.0 CALM 0 4 0 2 1018.2 1018.8 0.0
24/05:00am 2.1 0.4 2.0 99 0.0 CALM 0 0 0 0 1018.1 1018.7 0.0
24/04:30am 2.5 0.9 2.4 99 0.0 CALM 0 0 0 0 1018.1 1018.7 0.0
24/04:00am 1.8 -0.7 1.7 99 0.0 SSE 4 6 2 3 1018.1 1018.7 0.0
24/03:30am 0.9 -2.1 0.8 99 0.0 S 6 9 3 5 1018.1 1018.7 0.0
24/03:00am 0.7 -1.2 0.6 99 0.0 CALM 0 0 0 0 1018.2 1018.8 0.0
24/02:30am 1.3 -0.5 1.2 99 0.0 CALM 0 0 0 0 1018.3 1018.9 0.0
24/02:00am 1.3 -0.5 1.2 99 0.0 CALM 0 0 0 0 1018.5 1019.1 0.0
24/01:30am 1.6 -0.9 1.5 99 0.0 S 4 7 2 4 1018.7 1019.3 0.0
24/01:00am 0.9 -1.0 0.8 99 0.0 CALM 0 0 0 0 1018.8 1019.4 0.0
24/12:30am 1.4 -0.4 1.3 99 0.0 CALM 0 0 0 0 1019.2 1019.8 0.0
24/12:00am 2.0 0.3 1.9 99 0.0 CALM 0 0 0 0 1019.3 1019.9 0.0
 
Date/Time
EST
Temp
°C
App
Temp
°C
Dew
Point
°C
Rel
Hum
%
Delta-T
°C
Wind Press
QNH
hPa
Press
MSL
hPa
Rain since
9am
mm
Dir  Spd
km/h
Gust
km/h
Spd
kts
Gust
kts
23/11:30pm 2.8 0.5 2.7 99 0.0 NNW 4 7 2 4 1019.4 1020.0 0.0
23/11:00pm 3.6 2.1 3.2 97 0.2 CALM 0 0 0 0 1019.3 1019.9 0.0
23/10:30pm 4.4 3.0 3.8 96 0.3 CALM 0 0 0 0 1019.4 1020.0 0.0
23/10:00pm 4.4 3.0 3.4 93 0.4 CALM 0 0 0 0 1019.3 1019.9 0.0
23/09:30pm 4.7 3.3 3.5 92 0.5 CALM 0 0 0 0 1019.2 1019.8 0.0
23/09:00pm 6.3 5.1 4.6 89 0.8 CALM 0 0 0 0 1019.0 1019.6 0.0
23/08:30pm 6.8 5.6 4.6 86 1.0 CALM 0 0 0 0 1018.9 1019.5 0.0
23/08:00pm 7.4 6.3 4.9 84 1.1 CALM 0 0 0 0 1018.8 1019.4 0.0
23/07:30pm 7.2 6.0 4.5 83 1.2 CALM 0 0 0 0 1018.7 1019.3 0.0
23/07:00pm 7.5 6.3 4.5 81 1.3 CALM 0 0 0 0 1018.5 1019.1 0.0
23/06:30pm 8.0 5.6 4.4 78 1.6 SW 6 7 3 4 1018.3 1018.9 0.0
23/06:00pm 9.4 7.6 3.4 66 2.6 W 2 6 1 3 1018.1 1018.7 0.0
23/05:30pm 12.4 9.8 4.4 58 3.7 WSW 7 11 4 6 1017.9 1018.5 0.0
23/05:00pm 14.7 11.7 4.1 49 5.0 WSW 9 15 5 8 1017.8 1018.4 0.0
23/04:30pm 15.8 12.7 3.6 44 5.7 W 9 15 5 8 1017.5 1018.0 0.0
23/04:00pm 16.6 12.9 2.6 39 6.5 WSW 11 17 6 9 1017.3 1017.9 0.0
23/03:30pm 16.6 12.9 2.6 39 6.5 WSW 11 22 6 12 1017.3 1017.9 0.0
23/03:00pm 17.6 14.5 3.5 39 6.7 W 9 19 5 10 1017.3 1017.9 0.0
23/02:30pm 17.1 13.1 2.7 38 6.7 W 13 24 7 13 1017.6 1018.1 0.0
23/02:00pm 17.3 13.4 3.2 39 6.6 WSW 13 20 7 11 1017.8 1018.4 0.0
23/01:30pm 17.3 14.3 3.9 41 6.4 WNW 9 15 5 8 1017.7 1018.2 0.0
23/01:00pm 17.6 14.4 5.2 44 6.1 NNW 11 20 6 11 1018.0 1018.6 0.0
23/12:30pm 16.6 13.3 2.2 38 6.6 WNW 9 17 5 9 1018.4 1019.0 0.0
23/12:00pm 16.5 13.7 1.8 37 6.7 NW 6 13 3 7 1018.8 1019.4 0.0
23/11:30am 16.5 13.9 3.2 41 6.2 SW 6 11 3 6 1019.4 1020.0 0.0
23/11:00am 15.9 13.3 3.0 42 6.0 SSW 6 9 3 5 1019.8 1020.4 0.0
23/10:30am 14.9 12.6 5.7 54 4.5 SSE 7 13 4 7 1019.8 1020.4 0.0
23/10:00am 12.9 10.8 6.0 63 3.3 S 6 9 3 5 1020.0 1020.7 0.0
23/09:30am 11.1 9.2 6.5 73 2.2 SSE 6 9 3 5 1020.1 1020.8 0.0
23/09:00am 8.6 6.3 5.9 83 1.3 S 7 9 4 5 1020.1 1020.8 0.2
23/08:30am 5.6 3.1 4.9 95 0.3 S 7 9 4 5 1020.1 1020.8 0.2
23/08:00am 2.7 -0.2 2.6 99 0.0 SSE 7 7 4 4 1020.0 1020.7 0.2
23/07:30am 0.1 -3.2 0.0 99 0.0 SSW 7 7 4 4 1019.9 1020.6 0.2
23/07:00am -1.5 -5.0 -1.6 99 0.0 SW 7 7 4 4 1019.7 1020.3 0.2
23/06:30am -1.6 -5.0 -1.7 99 0.0 S 6 7 3 4 1019.6 1020.2 0.2
23/06:00am -1.7 -5.1 -1.8 99 0.0 S 6 6 3 3 1019.4 1020.0 0.2
23/05:30am -1.7 -5.3 -1.8 99 0.0 SSW 7 9 4 5 1019.2 1019.8 0.2
23/05:00am -1.5 -4.8 -1.6 99 0.0 SW 6 7 3 4 1019.1 1019.7 0.2
23/04:30am -1.0 -4.3 -1.1 99 0.0 SSW 6 7 3 4 1019.1 1019.7 0.2
23/04:00am -0.7 -4.5 -0.8 99 0.0 S 9 9 5 5 1019.4 1020.0 0.2
23/03:30am -0.5 -3.9 -0.6 99 0.0 SSW 7 9 4 5 1019.6 1020.2 0.2
23/03:00am -1.0 -4.3 -1.1 99 0.0 SW 6 7 3 4 1019.6 1020.2 0.2
23/02:30am -1.1 -5.0 -1.4 98 0.1 SSW 9 9 5 5 1019.8 1020.4 0.2
23/02:00am -0.2 -3.9 -0.3 99 0.0 SSW 9 9 5 5 1019.9 1020.6 0.2
23/01:30am -0.4 -4.2 -0.5 99 0.0 S 9 11 5 6 1020.1 1020.8 0.2
23/01:00am 0.3 -3.0 0.2 99 0.0 SSW 7 9 4 5 1020.1 1020.8 0.2
23/12:30am 0.1 -3.6 0.0 99 0.0 S 9 11 5 6 1020.4 1021.0 0.2
23/12:00am 0.8 -2.8 0.7 99 0.0 S 9 11 5 6 1020.4 1021.0 0.2
 
Date/Time
EST
Temp
°C
App
Temp
°C
Dew
Point
°C
Rel
Hum
%
Delta-T
°C
Wind Press
QNH
hPa
Press
MSL
hPa
Rain since
9am
mm
Dir  Spd
km/h
Gust
km/h
Spd
kts
Gust
kts
22/11:30pm 0.4 -2.9 0.3 99 0.0 SSW 7 7 4 4 1020.4 1021.0 0.2
22/11:00pm 1.1 -2.1 1.0 99 0.0 SSW 7 9 4 5 1020.4 1021.0 0.2
22/10:30pm 1.4 -2.1 1.3 99 0.0 SSW 9 9 5 5 1020.7 1021.3 0.2
22/10:00pm 1.6 -1.5 1.2 97 0.2 SSW 7 9 4 5 1020.7 1021.3 0.2
22/09:30pm 1.8 -1.7 1.2 96 0.2 SSW 9 9 5 5 1020.6 1021.2 0.2
22/09:00pm 3.1 0.2 2.8 98 0.1 SSW 7 9 4 5 1020.4 1021.0 0.2
22/08:30pm 2.6 -0.3 1.4 92 0.5 SW 6 7 3 4 1020.4 1021.0 0.2
22/08:00pm 3.6 0.9 2.4 92 0.5 S 6 7 3 4 1020.1 1020.8 0.2
22/07:30pm 4.2 1.5 2.6 89 0.7 SSW 6 7 3 4 1019.8 1020.4 0.2
22/07:00pm 5.3 2.7 3.2 86 0.9 SSW 6 7 3 4 1019.6 1020.2 0.2
22/06:30pm 6.5 3.7 3.3 80 1.4 W 7 9 4 5 1019.6 1020.2 0.2
22/06:00pm 10.1 8.9 4.5 68 2.5 CALM 0 0 0 0 1019.3 1019.9 0.2
22/05:30pm 12.9 9.9 4.1 55 4.1 SSW 9 11 5 6 1019.1 1019.7 0.2
22/05:00pm 15.0 12.1 4.4 49 5.0 SSW 9 11 5 6 1019.0 1019.6 0.2
22/04:30pm 15.7 12.1 2.8 42 5.9 SSW 11 15 6 8 1018.7 1019.3 0.2
22/04:00pm 16.1 12.4 2.2 39 6.3 SSW 11 17 6 9 1018.4 1019.0 0.2
22/03:30pm 16.7 12.9 2.0 37 6.7 SSW 11 17 6 9 1018.2 1018.8 0.2
22/03:00pm 16.9 14.1 3.2 40 6.4 SSW 7 15 4 8 1018.1 1018.7 0.2
22/02:30pm 16.4 12.7 2.1 38 6.5 SSW 11 17 6 9 1018.0 1018.6 0.2
22/02:00pm 16.7 13.6 1.6 36 6.8 SSW 7 13 4 7 1017.9 1018.5 0.2
22/01:30pm 16.4 12.7 2.1 38 6.5 S 11 19 6 10 1017.9 1018.5 0.2
22/01:00pm 15.9 12.6 2.3 40 6.2 S 9 13 5 7 1018.1 1018.7 0.2
22/12:30pm 16.2 12.2 2.9 41 6.2 ESE 13 19 7 10 1018.2 1018.8 0.2
22/12:00pm 15.5 12.2 2.7 42 5.9 SE 9 17 5 9 1018.6 1019.2 0.2
22/11:30am 15.0 11.7 2.5 43 5.7 SE 9 15 5 8 1019.1 1019.7 0.0
22/11:00am 14.1 10.8 2.7 46 5.2 SE 9 15 5 8 1019.3 1019.9 0.0
22/10:30am 14.2 11.2 5.8 57 4.1 E 11 15 6 8 1019.4 1020.0 0.0
22/10:00am 12.1 10.1 6.4 68 2.7 S 6 9 3 5 1019.4 1020.0 0.0
22/09:30am 10.4 8.2 6.2 75 2.0 S 7 9 4 5 1019.3 1019.9 0.0
22/09:00am 8.8 5.6 5.0 77 1.7 S 11 13 6 7 1019.2 1019.8 0.8
22/08:30am 7.3 4.0 4.8 84 1.1 SSE 11 13 6 7 1019.1 1019.7 0.8
22/08:00am 4.5 1.5 4.1 97 0.2 S 9 11 5 6 1018.9 1019.5 0.8
22/07:30am 1.1 -2.1 1.0 99 0.0 SSW 7 9 4 5 1018.6 1019.2 0.8
22/07:00am 0.9 -2.3 0.8 99 0.0 SSW 7 9 4 5 1018.3 1018.9 0.8
22/06:30am 0.2 -2.9 0.1 99 0.0 SSW 6 7 3 4 1017.9 1018.5 0.8
22/06:00am 1.0 -2.6 0.9 99 0.0 SSW 9 11 5 6 1017.5 1018.0 0.8
22/05:30am 1.3 -2.6 1.2 99 0.0 SSW 11 13 6 7 1017.5 1018.0 0.8
22/05:00am 1.4 -2.2 0.8 96 0.2 SSW 9 11 5 6 1017.3 1017.9 0.8
22/04:30am 2.8 -1.3 2.1 95 0.3 SSW 13 15 7 8 1016.9 1017.5 0.8
22/04:00am 2.9 -1.5 2.6 98 0.1 S 15 17 8 9 1016.5 1017.1 0.8
22/03:30am 1.5 -2.4 1.4 99 0.0 SSW 11 13 6 7 1016.4 1017.0 0.8
22/03:00am 0.6 -3.0 0.5 99 0.0 S 9 13 5 7 1016.4 1017.0 0.8
22/02:30am 1.3 -1.8 1.2 99 0.0 SW 7 9 4 5 1016.5 1017.1 0.8
22/02:00am 1.4 -1.7 1.3 99 0.0 SSW 7 7 4 4 1016.6 1017.2 0.8
22/01:30am 2.0 -1.0 1.7 98 0.1 SSW 7 7 4 4 1016.7 1017.3 0.8
22/01:00am 3.3 0.7 3.2 99 0.0 SSW 6 7 3 4 1016.9 1017.5 0.8
22/12:30am 3.3 0.4 2.4 94 0.4 WSW 7 9 4 5 1016.9 1017.5 0.8
22/12:00am 4.8 1.8 3.9 94 0.4 SSW 9 13 5 7 1016.9 1017.5 0.8
 
Date/Time
EST
Temp
°C
App
Temp
°C
Dew
Point
°C
Rel
Hum
%
Delta-T
°C
Wind Press
QNH
hPa
Press
MSL
hPa
Rain since
9am
mm
Dir  Spd
km/h
Gust
km/h
Spd
kts
Gust
kts
21/11:30pm 4.5 1.8 3.9 96 0.3 SSW 7 9 4 5 1017.0 1017.6 0.8
21/11:00pm 4.4 1.3 3.5 94 0.4 SSW 9 11 5 6 1017.3 1017.9 0.8
21/10:30pm 5.0 2.3 3.7 91 0.6 SW 7 9 4 5 1017.2 1017.8 0.8
21/10:00pm 6.4 5.2 4.6 88 0.8 CALM 0 0 0 0 1017.3 1017.9 0.8
21/09:30pm 6.9 4.0 4.6 85 1.0 SSE 9 13 5 7 1017.3 1017.9 0.8
21/09:00pm 7.0 4.1 4.7 85 1.0 S 9 11 5 6 1017.2 1017.8 0.8
21/08:30pm 7.0 4.1 4.8 86 1.0 S 9 11 5 6 1017.2 1017.8 0.8
21/08:00pm 6.7 4.2 4.9 88 0.8 SSW 7 9 4 5 1017.0 1017.6 0.8
21/07:30pm 7.1 3.9 5.1 87 0.9 SE 11 15 6 8 1016.8 1017.4 0.8
21/07:00pm 6.9 3.4 5.4 90 0.7 SSE 13 17 7 9 1016.8 1017.4 0.8
21/06:30pm 7.0 4.2 5.3 89 0.8 SSE 9 13 5 7 1016.7 1017.3 0.8
21/06:00pm 7.2 5.0 5.5 89 0.8 WSW 6 7 3 4 1016.6 1017.2 0.8
21/05:30pm 7.5 4.7 5.3 86 1.0 SE 9 11 5 6 1016.2 1016.8 0.8
21/05:00pm 7.8 5.1 5.6 86 1.0 SSE 9 11 5 6 1015.9 1016.5 0.8
21/04:30pm 8.0 5.7 5.8 86 1.0 SSW 7 13 4 7 1015.9 1016.5 0.8
21/04:00pm 9.1 5.6 3.5 68 2.5 NW 11 15 6 8 1015.9 1016.5 0.2
21/03:30pm 10.3 6.6 2.4 58 3.4 NNW 11 17 6 9 1015.5 1016.0 0.0
21/03:00pm 10.5 6.7 1.9 55 3.7 NNW 11 20 6 11 1015.5 1016.0 0.0
21/02:30pm 11.1 6.9 1.9 53 4.0 NNW 13 24 7 13 1015.4 1015.9 0.0
21/02:00pm 11.5 7.3 1.7 51 4.2 NNW 13 20 7 11 1015.7 1016.3 0.0
21/01:30pm 10.8 6.6 1.9 54 3.9 N 13 19 7 10 1015.5 1016.0 0.0
21/01:00pm 11.2 7.2 2.8 56 3.7 N 13 15 7 8 1015.7 1016.3 0.0
21/12:30pm 10.5 6.4 2.1 56 3.6 NNW 13 17 7 9 1016.3 1016.9 0.0
21/12:00pm 10.2 5.6 1.3 54 3.8 NNW 15 20 8 11 1016.9 1017.5 0.0
21/11:30am 10.5 5.7 2.4 57 3.5 NNW 17 28 9 15 1017.2 1017.8 0.0

Other Formats:

Comma delimited format used in spreadsheet applications
http://www.bom.gov.au/fwo/IDN60801/IDN60801.94712.axf

JavaScript Object Notation format (JSON) in row-major order
http://www.bom.gov.au/fwo/IDN60801/IDN60801.94712.json